sensor_id;sensor_type;location;lat;lon;timestamp;P1;durP1;ratioP1;P2;durP2;ratioP2
42754;SDS011;28407;51.830;5.684;2022-10-15T00:01:42;5.97;;;4.53;;
42754;SDS011;28407;51.830;5.684;2022-10-15T00:03:43;5.15;;;4.05;;
42754;SDS011;28407;51.830;5.684;2022-10-15T00:05:44;4.05;;;3.65;;
42754;SDS011;28407;51.830;5.684;2022-10-15T00:07:45;4.57;;;3.75;;
42754;SDS011;28407;51.830;5.684;2022-10-15T00:09:45;5.28;;;4.72;;
42754;SDS011;28407;51.830;5.684;2022-10-15T00:11:46;6.80;;;5.40;;
42754;SDS011;28407;51.830;5.684;2022-10-15T00:13:46;5.68;;;5.00;;
42754;SDS011;28407;51.830;5.684;2022-10-15T00:15:47;5.63;;;4.87;;
42754;SDS011;28407;51.830;5.684;2022-10-15T00:17:48;5.20;;;4.70;;
42754;SDS011;28407;51.830;5.684;2022-10-15T00:19:49;5.35;;;4.32;;
42754;SDS011;28407;51.830;5.684;2022-10-15T00:21:49;5.88;;;4.32;;
42754;SDS011;28407;51.830;5.684;2022-10-15T00:23:50;5.28;;;4.78;;
42754;SDS011;28407;51.830;5.684;2022-10-15T00:25:59;4.80;;;4.00;;
42754;SDS011;28407;51.830;5.684;2022-10-15T00:28:10;4.50;;;3.50;;
42754;SDS011;28407;51.830;5.684;2022-10-15T00:30:10;4.57;;;3.95;;
42754;SDS011;28407;51.830;5.684;2022-10-15T00:32:11;4.45;;;3.60;;
42754;SDS011;28407;51.830;5.684;2022-10-15T00:34:12;4.13;;;3.53;;
42754;SDS011;28407;51.830;5.684;2022-10-15T00:36:16;3.80;;;3.40;;
42754;SDS011;28407;51.830;5.684;2022-10-15T00:38:18;3.95;;;3.17;;
42754;SDS011;28407;51.830;5.684;2022-10-15T00:40:19;4.18;;;3.30;;
42754;SDS011;28407;51.830;5.684;2022-10-15T00:42:20;3.50;;;3.20;;
42754;SDS011;28407;51.830;5.684;2022-10-15T00:48:34;4.47;;;3.70;;
42754;SDS011;28407;51.830;5.684;2022-10-15T00:50:34;6.63;;;4.65;;
42754;SDS011;28407;51.830;5.684;2022-10-15T00:52:40;5.47;;;4.28;;
42754;SDS011;28407;51.830;5.684;2022-10-15T00:54:52;5.70;;;4.85;;
42754;SDS011;28407;51.830;5.684;2022-10-15T00:56:56;6.90;;;5.78;;
42754;SDS011;28407;51.830;5.684;2022-10-15T00:58:58;6.32;;;5.40;;
42754;SDS011;28407;51.830;5.684;2022-10-15T01:00:59;7.63;;;6.18;;
42754;SDS011;28407;51.830;5.684;2022-10-15T01:03:00;7.15;;;6.00;;
42754;SDS011;28407;51.830;5.684;2022-10-15T01:05:02;9.50;;;8.07;;
42754;SDS011;28407;51.830;5.684;2022-10-15T01:07:03;9.60;;;7.88;;
42754;SDS011;28407;51.830;5.684;2022-10-15T01:09:05;10.37;;;7.70;;
42754;SDS011;28407;51.830;5.684;2022-10-15T01:15:59;10.63;;;8.15;;
42754;SDS011;28407;51.830;5.684;2022-10-15T01:18:17;10.82;;;8.98;;
42754;SDS011;28407;51.830;5.684;2022-10-15T01:20:35;10.70;;;7.93;;
42754;SDS011;28407;51.830;5.684;2022-10-15T01:22:53;10.07;;;9.02;;
42754;SDS011;28407;51.830;5.684;2022-10-15T01:25:25;10.93;;;9.10;;
42754;SDS011;28407;51.830;5.684;2022-10-15T01:27:51;12.85;;;8.63;;
42754;SDS011;28407;51.830;5.684;2022-10-15T01:30:00;12.57;;;9.75;;
42754;SDS011;28407;51.830;5.684;2022-10-15T01:32:25;13.18;;;10.05;;
42754;SDS011;28407;51.830;5.684;2022-10-15T01:34:46;11.02;;;9.15;;
42754;SDS011;28407;51.830;5.684;2022-10-15T01:39:22;11.73;;;9.93;;
42754;SDS011;28407;51.830;5.684;2022-10-15T01:43:57;13.40;;;9.93;;
42754;SDS011;28407;51.830;5.684;2022-10-15T01:46:23;13.15;;;10.23;;
42754;SDS011;28407;51.830;5.684;2022-10-15T01:48:37;12.90;;;11.27;;
42754;SDS011;28407;51.830;5.684;2022-10-15T01:50:40;14.63;;;10.27;;
42754;SDS011;28407;51.830;5.684;2022-10-15T01:52:48;13.15;;;9.63;;
42754;SDS011;28407;51.830;5.684;2022-10-15T01:54:50;13.25;;;10.15;;
42754;SDS011;28407;51.830;5.684;2022-10-15T01:56:54;12.50;;;9.85;;
42754;SDS011;28407;51.830;5.684;2022-10-15T01:58:57;14.93;;;10.20;;
42754;SDS011;28407;51.830;5.684;2022-10-15T02:00:59;14.20;;;11.70;;
42754;SDS011;28407;51.830;5.684;2022-10-15T02:03:00;16.60;;;12.00;;
42754;SDS011;28407;51.830;5.684;2022-10-15T02:05:02;12.75;;;10.57;;
42754;SDS011;28407;51.830;5.684;2022-10-15T02:07:06;15.18;;;11.68;;
42754;SDS011;28407;51.830;5.684;2022-10-15T02:13:32;14.38;;;10.32;;
42754;SDS011;28407;51.830;5.684;2022-10-15T02:16:05;14.10;;;10.38;;
42754;SDS011;28407;51.830;5.684;2022-10-15T02:20:21;15.02;;;11.70;;
42754;SDS011;28407;51.830;5.684;2022-10-15T02:22:27;14.98;;;11.52;;
42754;SDS011;28407;51.830;5.684;2022-10-15T02:24:37;14.85;;;11.30;;
42754;SDS011;28407;51.830;5.684;2022-10-15T02:26:42;15.80;;;12.15;;
42754;SDS011;28407;51.830;5.684;2022-10-15T02:28:49;15.93;;;11.57;;
42754;SDS011;28407;51.830;5.684;2022-10-15T02:30:54;14.27;;;11.65;;
42754;SDS011;28407;51.830;5.684;2022-10-15T02:32:57;13.38;;;10.52;;
42754;SDS011;28407;51.830;5.684;2022-10-15T02:34:59;14.75;;;11.45;;
42754;SDS011;28407;51.830;5.684;2022-10-15T02:37:02;16.10;;;12.55;;
42754;SDS011;28407;51.830;5.684;2022-10-15T02:39:07;13.48;;;10.55;;
42754;SDS011;28407;51.830;5.684;2022-10-15T02:41:13;14.50;;;10.77;;
42754;SDS011;28407;51.830;5.684;2022-10-15T02:43:15;13.45;;;10.73;;
42754;SDS011;28407;51.830;5.684;2022-10-15T02:45:19;13.85;;;11.23;;
42754;SDS011;28407;51.830;5.684;2022-10-15T02:47:20;14.05;;;11.32;;
42754;SDS011;28407;51.830;5.684;2022-10-15T02:49:21;13.77;;;11.43;;
42754;SDS011;28407;51.830;5.684;2022-10-15T02:51:23;13.77;;;11.35;;
42754;SDS011;28407;51.830;5.684;2022-10-15T02:53:24;14.98;;;13.20;;
42754;SDS011;28407;51.830;5.684;2022-10-15T02:55:24;11.35;;;9.68;;
42754;SDS011;28407;51.830;5.684;2022-10-15T02:57:25;14.90;;;11.00;;
42754;SDS011;28407;51.830;5.684;2022-10-15T02:59:26;12.63;;;10.32;;
42754;SDS011;28407;51.830;5.684;2022-10-15T03:01:28;14.38;;;11.32;;
42754;SDS011;28407;51.830;5.684;2022-10-15T03:03:29;16.52;;;12.90;;
42754;SDS011;28407;51.830;5.684;2022-10-15T03:05:30;12.95;;;10.93;;
42754;SDS011;28407;51.830;5.684;2022-10-15T03:07:31;13.05;;;10.73;;
42754;SDS011;28407;51.830;5.684;2022-10-15T03:09:32;13.70;;;11.10;;
42754;SDS011;28407;51.830;5.684;2022-10-15T03:11:37;14.27;;;11.10;;
42754;SDS011;28407;51.830;5.684;2022-10-15T03:13:39;14.40;;;11.25;;
42754;SDS011;28407;51.830;5.684;2022-10-15T03:15:40;12.50;;;11.10;;
42754;SDS011;28407;51.830;5.684;2022-10-15T03:17:41;14.48;;;10.65;;
42754;SDS011;28407;51.830;5.684;2022-10-15T03:19:42;14.32;;;11.77;;
42754;SDS011;28407;51.830;5.684;2022-10-15T03:21:44;12.60;;;10.63;;
42754;SDS011;28407;51.830;5.684;2022-10-15T03:23:47;12.63;;;11.27;;
42754;SDS011;28407;51.830;5.684;2022-10-15T03:25:55;13.75;;;10.45;;
42754;SDS011;28407;51.830;5.684;2022-10-15T03:27:56;12.82;;;10.77;;
42754;SDS011;28407;51.830;5.684;2022-10-15T03:30:05;11.93;;;10.25;;
42754;SDS011;28407;51.830;5.684;2022-10-15T03:34:07;11.05;;;8.85;;
42754;SDS011;28407;51.830;5.684;2022-10-15T03:36:08;12.65;;;10.45;;
42754;SDS011;28407;51.830;5.684;2022-10-15T03:38:09;25.80;;;12.80;;
42754;SDS011;28407;51.830;5.684;2022-10-15T03:40:11;11.68;;;10.27;;
42754;SDS011;28407;51.830;5.684;2022-10-15T03:42:11;12.70;;;9.88;;
42754;SDS011;28407;51.830;5.684;2022-10-15T03:44:18;12.90;;;10.63;;
42754;SDS011;28407;51.830;5.684;2022-10-15T03:46:30;13.45;;;9.88;;
42754;SDS011;28407;51.830;5.684;2022-10-15T03:48:33;13.68;;;11.30;;
42754;SDS011;28407;51.830;5.684;2022-10-15T03:50:33;13.38;;;11.32;;
42754;SDS011;28407;51.830;5.684;2022-10-15T03:52:36;13.30;;;10.23;;
42754;SDS011;28407;51.830;5.684;2022-10-15T03:54:37;12.02;;;10.30;;
42754;SDS011;28407;51.830;5.684;2022-10-15T03:56:38;13.80;;;10.23;;
42754;SDS011;28407;51.830;5.684;2022-10-15T03:58:55;12.32;;;10.00;;
42754;SDS011;28407;51.830;5.684;2022-10-15T04:00:56;12.65;;;10.10;;
42754;SDS011;28407;51.830;5.684;2022-10-15T04:02:57;12.82;;;10.52;;
42754;SDS011;28407;51.830;5.684;2022-10-15T04:05:00;10.98;;;9.18;;
42754;SDS011;28407;51.830;5.684;2022-10-15T04:07:00;11.23;;;10.05;;
42754;SDS011;28407;51.830;5.684;2022-10-15T04:09:03;12.55;;;10.18;;
42754;SDS011;28407;51.830;5.684;2022-10-15T04:11:04;11.57;;;10.38;;
42754;SDS011;28407;51.830;5.684;2022-10-15T04:13:05;16.17;;;9.57;;
42754;SDS011;28407;51.830;5.684;2022-10-15T04:15:07;11.80;;;9.75;;
42754;SDS011;28407;51.830;5.684;2022-10-15T04:17:08;11.70;;;9.60;;
42754;SDS011;28407;51.830;5.684;2022-10-15T04:19:09;10.75;;;9.52;;
42754;SDS011;28407;51.830;5.684;2022-10-15T04:21:10;10.57;;;9.48;;
42754;SDS011;28407;51.830;5.684;2022-10-15T04:23:13;13.63;;;10.18;;
42754;SDS011;28407;51.830;5.684;2022-10-15T04:25:20;11.82;;;10.05;;
42754;SDS011;28407;51.830;5.684;2022-10-15T04:27:21;13.07;;;9.95;;
42754;SDS011;28407;51.830;5.684;2022-10-15T04:29:22;12.63;;;10.60;;
42754;SDS011;28407;51.830;5.684;2022-10-15T04:31:23;11.25;;;10.07;;
42754;SDS011;28407;51.830;5.684;2022-10-15T04:33:24;12.80;;;9.73;;
42754;SDS011;28407;51.830;5.684;2022-10-15T04:35:29;13.48;;;9.93;;
42754;SDS011;28407;51.830;5.684;2022-10-15T04:37:37;11.48;;;10.27;;
42754;SDS011;28407;51.830;5.684;2022-10-15T04:39:38;11.90;;;9.30;;
42754;SDS011;28407;51.830;5.684;2022-10-15T04:41:42;13.60;;;10.43;;
42754;SDS011;28407;51.830;5.684;2022-10-15T04:43:51;11.40;;;10.13;;
42754;SDS011;28407;51.830;5.684;2022-10-15T04:45:54;11.73;;;10.02;;
42754;SDS011;28407;51.830;5.684;2022-10-15T04:47:56;11.52;;;10.10;;
42754;SDS011;28407;51.830;5.684;2022-10-15T04:49:57;13.30;;;10.93;;
42754;SDS011;28407;51.830;5.684;2022-10-15T04:52:13;11.30;;;9.88;;
42754;SDS011;28407;51.830;5.684;2022-10-15T04:54:22;11.02;;;9.35;;
42754;SDS011;28407;51.830;5.684;2022-10-15T04:56:35;12.35;;;10.30;;
42754;SDS011;28407;51.830;5.684;2022-10-15T04:58:36;12.55;;;10.30;;
42754;SDS011;28407;51.830;5.684;2022-10-15T05:00:37;11.80;;;9.52;;
42754;SDS011;28407;51.830;5.684;2022-10-15T05:02:57;11.05;;;9.65;;
42754;SDS011;28407;51.830;5.684;2022-10-15T05:05:09;11.10;;;9.10;;
42754;SDS011;28407;51.830;5.684;2022-10-15T05:07:19;12.68;;;9.43;;
42754;SDS011;28407;51.830;5.684;2022-10-15T05:11:25;9.65;;;8.32;;
42754;SDS011;28407;51.830;5.684;2022-10-15T05:13:27;11.55;;;9.13;;
42754;SDS011;28407;51.830;5.684;2022-10-15T05:15:28;12.40;;;9.60;;
42754;SDS011;28407;51.830;5.684;2022-10-15T05:17:29;12.13;;;9.93;;
42754;SDS011;28407;51.830;5.684;2022-10-15T05:19:31;14.75;;;10.93;;
42754;SDS011;28407;51.830;5.684;2022-10-15T05:21:33;13.13;;;10.70;;
42754;SDS011;28407;51.830;5.684;2022-10-15T05:23:38;12.23;;;10.18;;
42754;SDS011;28407;51.830;5.684;2022-10-15T05:25:48;13.45;;;10.82;;
42754;SDS011;28407;51.830;5.684;2022-10-15T05:27:54;12.55;;;10.70;;
42754;SDS011;28407;51.830;5.684;2022-10-15T05:29:55;11.23;;;9.10;;
42754;SDS011;28407;51.830;5.684;2022-10-15T05:31:58;11.27;;;9.50;;
42754;SDS011;28407;51.830;5.684;2022-10-15T05:34:05;16.05;;;10.25;;
42754;SDS011;28407;51.830;5.684;2022-10-15T05:36:11;12.45;;;10.25;;
42754;SDS011;28407;51.830;5.684;2022-10-15T05:40:13;10.10;;;8.82;;
42754;SDS011;28407;51.830;5.684;2022-10-15T05:42:14;11.38;;;10.13;;
42754;SDS011;28407;51.830;5.684;2022-10-15T05:44:21;14.43;;;10.27;;
42754;SDS011;28407;51.830;5.684;2022-10-15T05:46:22;11.73;;;9.15;;
42754;SDS011;28407;51.830;5.684;2022-10-15T05:48:23;11.20;;;9.83;;
42754;SDS011;28407;51.830;5.684;2022-10-15T05:50:24;12.10;;;10.07;;
42754;SDS011;28407;51.830;5.684;2022-10-15T05:52:28;13.77;;;10.27;;
42754;SDS011;28407;51.830;5.684;2022-10-15T05:54:51;10.45;;;9.32;;
42754;SDS011;28407;51.830;5.684;2022-10-15T05:56:52;13.10;;;10.48;;
42754;SDS011;28407;51.830;5.684;2022-10-15T05:58:53;12.55;;;9.88;;
42754;SDS011;28407;51.830;5.684;2022-10-15T06:00:56;12.60;;;10.05;;
42754;SDS011;28407;51.830;5.684;2022-10-15T06:02:57;12.85;;;10.45;;
42754;SDS011;28407;51.830;5.684;2022-10-15T06:04:58;14.55;;;10.05;;
42754;SDS011;28407;51.830;5.684;2022-10-15T06:06:58;12.20;;;9.95;;
42754;SDS011;28407;51.830;5.684;2022-10-15T06:08:59;13.77;;;10.45;;
42754;SDS011;28407;51.830;5.684;2022-10-15T06:11:03;13.95;;;11.13;;
42754;SDS011;28407;51.830;5.684;2022-10-15T06:13:04;13.48;;;10.02;;
42754;SDS011;28407;51.830;5.684;2022-10-15T06:15:05;11.77;;;9.48;;
42754;SDS011;28407;51.830;5.684;2022-10-15T06:17:06;13.45;;;9.73;;
42754;SDS011;28407;51.830;5.684;2022-10-15T06:19:06;12.23;;;9.05;;
42754;SDS011;28407;51.830;5.684;2022-10-15T06:21:08;13.52;;;10.63;;
42754;SDS011;28407;51.830;5.684;2022-10-15T06:23:10;12.48;;;9.27;;
42754;SDS011;28407;51.830;5.684;2022-10-15T06:25:12;12.73;;;9.85;;
42754;SDS011;28407;51.830;5.684;2022-10-15T06:27:12;12.18;;;9.18;;
42754;SDS011;28407;51.830;5.684;2022-10-15T06:29:13;12.15;;;9.93;;
42754;SDS011;28407;51.830;5.684;2022-10-15T06:31:14;10.70;;;8.40;;
42754;SDS011;28407;51.830;5.684;2022-10-15T06:33:14;10.52;;;8.38;;
42754;SDS011;28407;51.830;5.684;2022-10-15T06:35:16;11.40;;;9.07;;
42754;SDS011;28407;51.830;5.684;2022-10-15T06:37:17;11.07;;;8.70;;
42754;SDS011;28407;51.830;5.684;2022-10-15T06:39:18;11.77;;;9.45;;
42754;SDS011;28407;51.830;5.684;2022-10-15T06:41:18;11.13;;;8.40;;
42754;SDS011;28407;51.830;5.684;2022-10-15T06:43:19;14.23;;;10.10;;
42754;SDS011;28407;51.830;5.684;2022-10-15T06:45:20;12.25;;;8.65;;
42754;SDS011;28407;51.830;5.684;2022-10-15T06:47:20;10.38;;;8.55;;
42754;SDS011;28407;51.830;5.684;2022-10-15T06:49:21;12.52;;;8.55;;
42754;SDS011;28407;51.830;5.684;2022-10-15T06:51:22;10.45;;;7.88;;
42754;SDS011;28407;51.830;5.684;2022-10-15T06:53:23;12.05;;;8.88;;
42754;SDS011;28407;51.830;5.684;2022-10-15T06:55:24;14.13;;;8.98;;
42754;SDS011;28407;51.830;5.684;2022-10-15T06:57:26;13.40;;;9.98;;
42754;SDS011;28407;51.830;5.684;2022-10-15T06:59:27;11.02;;;7.90;;
42754;SDS011;28407;51.830;5.684;2022-10-15T07:01:29;10.95;;;9.00;;
42754;SDS011;28407;51.830;5.684;2022-10-15T07:03:29;12.07;;;8.85;;
42754;SDS011;28407;51.830;5.684;2022-10-15T07:05:30;11.90;;;9.18;;
42754;SDS011;28407;51.830;5.684;2022-10-15T07:07:31;12.57;;;8.13;;
42754;SDS011;28407;51.830;5.684;2022-10-15T07:09:31;11.60;;;8.73;;
42754;SDS011;28407;51.830;5.684;2022-10-15T07:11:34;11.07;;;8.60;;
42754;SDS011;28407;51.830;5.684;2022-10-15T07:13:34;12.02;;;9.32;;
42754;SDS011;28407;51.830;5.684;2022-10-15T07:17:37;11.35;;;8.52;;
42754;SDS011;28407;51.830;5.684;2022-10-15T07:19:38;10.47;;;7.87;;
42754;SDS011;28407;51.830;5.684;2022-10-15T07:21:39;10.35;;;7.85;;
42754;SDS011;28407;51.830;5.684;2022-10-15T07:23:39;10.60;;;8.00;;
42754;SDS011;28407;51.830;5.684;2022-10-15T07:25:40;10.63;;;7.60;;
42754;SDS011;28407;51.830;5.684;2022-10-15T07:27:40;10.75;;;7.95;;
42754;SDS011;28407;51.830;5.684;2022-10-15T07:29:41;11.48;;;8.93;;
42754;SDS011;28407;51.830;5.684;2022-10-15T07:31:42;10.82;;;8.30;;
42754;SDS011;28407;51.830;5.684;2022-10-15T07:33:43;14.10;;;9.98;;
42754;SDS011;28407;51.830;5.684;2022-10-15T07:35:43;12.65;;;8.88;;
42754;SDS011;28407;51.830;5.684;2022-10-15T07:37:44;12.65;;;10.40;;
42754;SDS011;28407;51.830;5.684;2022-10-15T07:39:46;11.05;;;8.68;;
42754;SDS011;28407;51.830;5.684;2022-10-15T07:41:47;11.93;;;9.60;;
42754;SDS011;28407;51.830;5.684;2022-10-15T07:43:50;13.75;;;10.18;;
42754;SDS011;28407;51.830;5.684;2022-10-15T07:45:51;15.55;;;11.15;;
42754;SDS011;28407;51.830;5.684;2022-10-15T07:47:52;14.00;;;10.43;;
42754;SDS011;28407;51.830;5.684;2022-10-15T07:49:53;13.10;;;10.27;;
42754;SDS011;28407;51.830;5.684;2022-10-15T07:51:54;14.07;;;9.93;;
42754;SDS011;28407;51.830;5.684;2022-10-15T07:53:54;13.00;;;9.38;;
42754;SDS011;28407;51.830;5.684;2022-10-15T07:55:58;14.38;;;9.90;;
42754;SDS011;28407;51.830;5.684;2022-10-15T07:58:03;13.48;;;10.93;;
42754;SDS011;28407;51.830;5.684;2022-10-15T08:00:07;13.02;;;10.20;;
42754;SDS011;28407;51.830;5.684;2022-10-15T08:02:15;13.43;;;9.98;;
42754;SDS011;28407;51.830;5.684;2022-10-15T08:04:17;16.02;;;11.32;;
42754;SDS011;28407;51.830;5.684;2022-10-15T08:06:22;15.65;;;11.15;;
42754;SDS011;28407;51.830;5.684;2022-10-15T08:08:23;14.05;;;10.80;;
42754;SDS011;28407;51.830;5.684;2022-10-15T08:10:23;14.60;;;11.70;;
42754;SDS011;28407;51.830;5.684;2022-10-15T08:12:24;13.15;;;10.90;;
42754;SDS011;28407;51.830;5.684;2022-10-15T08:14:25;14.68;;;11.35;;
42754;SDS011;28407;51.830;5.684;2022-10-15T08:16:25;14.77;;;10.88;;
42754;SDS011;28407;51.830;5.684;2022-10-15T08:18:35;13.68;;;10.32;;
42754;SDS011;28407;51.830;5.684;2022-10-15T08:20:36;12.95;;;10.15;;
42754;SDS011;28407;51.830;5.684;2022-10-15T08:22:38;11.25;;;8.27;;
42754;SDS011;28407;51.830;5.684;2022-10-15T08:24:39;12.23;;;9.55;;
42754;SDS011;28407;51.830;5.684;2022-10-15T08:26:39;12.40;;;9.75;;
42754;SDS011;28407;51.830;5.684;2022-10-15T08:28:40;12.40;;;9.57;;
42754;SDS011;28407;51.830;5.684;2022-10-15T08:30:40;14.65;;;10.05;;
42754;SDS011;28407;51.830;5.684;2022-10-15T08:32:45;13.82;;;9.50;;
42754;SDS011;28407;51.830;5.684;2022-10-15T08:34:45;10.95;;;8.52;;
42754;SDS011;28407;51.830;5.684;2022-10-15T08:36:46;11.93;;;8.13;;
42754;SDS011;28407;51.830;5.684;2022-10-15T08:38:46;11.57;;;7.93;;
42754;SDS011;28407;51.830;5.684;2022-10-15T08:40:47;13.02;;;8.82;;
42754;SDS011;28407;51.830;5.684;2022-10-15T08:42:50;9.90;;;7.65;;
42754;SDS011;28407;51.830;5.684;2022-10-15T08:44:55;10.65;;;8.13;;
42754;SDS011;28407;51.830;5.684;2022-10-15T08:49:26;11.18;;;8.55;;
42754;SDS011;28407;51.830;5.684;2022-10-15T08:51:39;12.82;;;8.18;;
42754;SDS011;28407;51.830;5.684;2022-10-15T08:53:47;11.45;;;8.25;;
42754;SDS011;28407;51.830;5.684;2022-10-15T08:58:05;9.73;;;7.32;;
42754;SDS011;28407;51.830;5.684;2022-10-15T09:02:22;10.32;;;8.02;;
42754;SDS011;28407;51.830;5.684;2022-10-15T09:04:41;10.20;;;7.90;;
42754;SDS011;28407;51.830;5.684;2022-10-15T09:06:53;9.25;;;7.40;;
42754;SDS011;28407;51.830;5.684;2022-10-15T09:11:05;9.20;;;7.18;;
42754;SDS011;28407;51.830;5.684;2022-10-15T09:15:24;9.35;;;7.00;;
42754;SDS011;28407;51.830;5.684;2022-10-15T09:17:31;9.98;;;6.90;;
42754;SDS011;28407;51.830;5.684;2022-10-15T09:19:33;8.98;;;7.40;;
42754;SDS011;28407;51.830;5.684;2022-10-15T09:21:36;9.90;;;6.82;;
42754;SDS011;28407;51.830;5.684;2022-10-15T09:23:37;9.52;;;7.65;;
42754;SDS011;28407;51.830;5.684;2022-10-15T09:25:40;15.70;;;9.70;;
42754;SDS011;28407;51.830;5.684;2022-10-15T09:27:46;7.78;;;5.95;;
42754;SDS011;28407;51.830;5.684;2022-10-15T09:30:01;7.75;;;6.22;;
42754;SDS011;28407;51.830;5.684;2022-10-15T09:32:11;9.95;;;6.07;;
42754;SDS011;28407;51.830;5.684;2022-10-15T09:34:25;9.13;;;6.70;;
42754;SDS011;28407;51.830;5.684;2022-10-15T09:36:49;6.90;;;4.80;;
42754;SDS011;28407;51.830;5.684;2022-10-15T09:38:59;8.20;;;5.78;;
42754;SDS011;28407;51.830;5.684;2022-10-15T09:43:54;8.10;;;5.53;;
42754;SDS011;28407;51.830;5.684;2022-10-15T09:45:57;8.15;;;5.20;;
42754;SDS011;28407;51.830;5.684;2022-10-15T09:48:04;8.55;;;5.32;;
42754;SDS011;28407;51.830;5.684;2022-10-15T09:50:18;7.80;;;5.18;;
42754;SDS011;28407;51.830;5.684;2022-10-15T09:52:29;8.18;;;5.20;;
42754;SDS011;28407;51.830;5.684;2022-10-15T09:54:50;7.63;;;5.53;;
42754;SDS011;28407;51.830;5.684;2022-10-15T09:57:06;8.77;;;5.63;;
42754;SDS011;28407;51.830;5.684;2022-10-15T09:59:14;8.68;;;5.90;;
42754;SDS011;28407;51.830;5.684;2022-10-15T10:01:20;7.13;;;5.18;;
42754;SDS011;28407;51.830;5.684;2022-10-15T10:03:27;8.00;;;5.55;;
42754;SDS011;28407;51.830;5.684;2022-10-15T10:05:29;6.57;;;5.50;;
42754;SDS011;28407;51.830;5.684;2022-10-15T10:07:36;8.40;;;6.45;;
42754;SDS011;28407;51.830;5.684;2022-10-15T10:09:38;9.07;;;5.75;;
42754;SDS011;28407;51.830;5.684;2022-10-15T10:11:47;6.72;;;5.22;;
42754;SDS011;28407;51.830;5.684;2022-10-15T10:13:52;7.25;;;5.68;;
42754;SDS011;28407;51.830;5.684;2022-10-15T10:15:55;8.30;;;4.88;;
42754;SDS011;28407;51.830;5.684;2022-10-15T10:18:20;7.20;;;5.13;;
42754;SDS011;28407;51.830;5.684;2022-10-15T10:20:27;7.60;;;5.63;;
42754;SDS011;28407;51.830;5.684;2022-10-15T10:22:29;7.25;;;4.85;;
42754;SDS011;28407;51.830;5.684;2022-10-15T10:24:42;7.40;;;5.60;;
42754;SDS011;28407;51.830;5.684;2022-10-15T10:26:45;6.75;;;4.30;;
42754;SDS011;28407;51.830;5.684;2022-10-15T10:28:51;6.63;;;5.65;;
42754;SDS011;28407;51.830;5.684;2022-10-15T10:32:56;7.57;;;5.80;;
42754;SDS011;28407;51.830;5.684;2022-10-15T10:34:58;7.82;;;5.13;;
42754;SDS011;28407;51.830;5.684;2022-10-15T10:41:18;7.40;;;5.18;;
42754;SDS011;28407;51.830;5.684;2022-10-15T10:43:22;7.68;;;5.57;;
42754;SDS011;28407;51.830;5.684;2022-10-15T10:45:27;6.85;;;5.00;;
42754;SDS011;28407;51.830;5.684;2022-10-15T10:47:28;6.60;;;4.80;;
42754;SDS011;28407;51.830;5.684;2022-10-15T10:49:41;7.90;;;5.32;;
42754;SDS011;28407;51.830;5.684;2022-10-15T10:51:49;6.63;;;4.93;;
42754;SDS011;28407;51.830;5.684;2022-10-15T10:56:01;7.03;;;4.82;;
42754;SDS011;28407;51.830;5.684;2022-10-15T10:58:08;5.82;;;4.20;;
42754;SDS011;28407;51.830;5.684;2022-10-15T11:00:18;6.53;;;4.90;;
42754;SDS011;28407;51.830;5.684;2022-10-15T11:02:21;7.10;;;4.97;;
42754;SDS011;28407;51.830;5.684;2022-10-15T11:04:26;7.90;;;5.35;;
42754;SDS011;28407;51.830;5.684;2022-10-15T11:08:56;8.30;;;4.93;;
42754;SDS011;28407;51.830;5.684;2022-10-15T11:13:31;7.00;;;4.72;;
42754;SDS011;28407;51.830;5.684;2022-10-15T11:28:21;7.20;;;3.88;;
42754;SDS011;28407;51.830;5.684;2022-10-15T11:32:49;6.38;;;3.90;;
42754;SDS011;28407;51.830;5.684;2022-10-15T11:35:12;4.80;;;3.25;;
42754;SDS011;28407;51.830;5.684;2022-10-15T11:37:40;5.93;;;3.90;;
42754;SDS011;28407;51.830;5.684;2022-10-15T11:42:44;4.68;;;3.28;;
42754;SDS011;28407;51.830;5.684;2022-10-15T11:52:12;4.60;;;2.97;;
42754;SDS011;28407;51.830;5.684;2022-10-15T11:54:30;4.40;;;2.83;;
42754;SDS011;28407;51.830;5.684;2022-10-15T11:56:33;4.05;;;2.92;;
42754;SDS011;28407;51.830;5.684;2022-10-15T11:58:38;4.80;;;3.00;;
42754;SDS011;28407;51.830;5.684;2022-10-15T12:00:45;3.22;;;2.60;;
42754;SDS011;28407;51.830;5.684;2022-10-15T12:02:50;5.10;;;2.65;;
42754;SDS011;28407;51.830;5.684;2022-10-15T12:04:55;4.45;;;2.80;;
42754;SDS011;28407;51.830;5.684;2022-10-15T12:07:04;3.65;;;2.58;;
42754;SDS011;28407;51.830;5.684;2022-10-15T12:09:12;3.47;;;2.88;;
42754;SDS011;28407;51.830;5.684;2022-10-15T12:11:20;2.65;;;2.05;;
42754;SDS011;28407;51.830;5.684;2022-10-15T12:13:37;2.92;;;2.25;;
42754;SDS011;28407;51.830;5.684;2022-10-15T12:15:46;3.05;;;2.42;;
42754;SDS011;28407;51.830;5.684;2022-10-15T12:18:09;2.67;;;2.10;;
42754;SDS011;28407;51.830;5.684;2022-10-15T12:20:22;2.50;;;2.22;;
42754;SDS011;28407;51.830;5.684;2022-10-15T12:26:44;2.13;;;1.90;;
42754;SDS011;28407;51.830;5.684;2022-10-15T12:28:46;2.30;;;2.10;;
42754;SDS011;28407;51.830;5.684;2022-10-15T12:30:53;2.65;;;2.20;;
42754;SDS011;28407;51.830;5.684;2022-10-15T12:33:01;2.33;;;1.95;;
42754;SDS011;28407;51.830;5.684;2022-10-15T12:35:22;2.65;;;2.30;;
42754;SDS011;28407;51.830;5.684;2022-10-15T12:37:28;2.25;;;1.92;;
42754;SDS011;28407;51.830;5.684;2022-10-15T12:39:33;2.15;;;1.95;;
42754;SDS011;28407;51.830;5.684;2022-10-15T12:41:41;2.42;;;2.22;;
42754;SDS011;28407;51.830;5.684;2022-10-15T12:43:52;2.00;;;1.80;;
42754;SDS011;28407;51.830;5.684;2022-10-15T12:46:05;1.85;;;1.75;;
42754;SDS011;28407;51.830;5.684;2022-10-15T12:50:22;3.70;;;2.55;;
42754;SDS011;28407;51.830;5.684;2022-10-15T12:54:50;2.75;;;2.45;;
42754;SDS011;28407;51.830;5.684;2022-10-15T12:56:51;2.65;;;2.45;;
42754;SDS011;28407;51.830;5.684;2022-10-15T12:58:55;3.33;;;2.15;;
42754;SDS011;28407;51.830;5.684;2022-10-15T13:00:55;2.63;;;2.28;;
42754;SDS011;28407;51.830;5.684;2022-10-15T13:02:57;2.90;;;2.17;;
42754;SDS011;28407;51.830;5.684;2022-10-15T13:05:28;2.55;;;2.35;;
42754;SDS011;28407;51.830;5.684;2022-10-15T13:07:31;2.42;;;2.22;;
42754;SDS011;28407;51.830;5.684;2022-10-15T13:09:37;2.75;;;2.20;;
42754;SDS011;28407;51.830;5.684;2022-10-15T13:11:43;2.47;;;2.28;;
42754;SDS011;28407;51.830;5.684;2022-10-15T13:13:54;4.47;;;2.10;;
42754;SDS011;28407;51.830;5.684;2022-10-15T13:16:05;2.15;;;1.95;;
42754;SDS011;28407;51.830;5.684;2022-10-15T13:18:10;2.55;;;2.33;;
42754;SDS011;28407;51.830;5.684;2022-10-15T13:20:25;2.53;;;2.20;;
42754;SDS011;28407;51.830;5.684;2022-10-15T13:22:28;2.60;;;2.40;;
42754;SDS011;28407;51.830;5.684;2022-10-15T13:24:41;2.88;;;2.40;;
42754;SDS011;28407;51.830;5.684;2022-10-15T13:26:47;2.72;;;2.45;;
42754;SDS011;28407;51.830;5.684;2022-10-15T13:28:50;3.75;;;2.63;;
42754;SDS011;28407;51.830;5.684;2022-10-15T13:32:54;2.90;;;2.50;;
42754;SDS011;28407;51.830;5.684;2022-10-15T13:34:55;3.30;;;2.85;;
42754;SDS011;28407;51.830;5.684;2022-10-15T13:36:58;3.80;;;3.00;;
42754;SDS011;28407;51.830;5.684;2022-10-15T13:39:34;2.90;;;2.60;;
42754;SDS011;28407;51.830;5.684;2022-10-15T13:41:29;3.40;;;2.75;;
42754;SDS011;28407;51.830;5.684;2022-10-15T13:43:33;4.63;;;2.53;;
42754;SDS011;28407;51.830;5.684;2022-10-15T13:45:34;3.00;;;2.42;;
42754;SDS011;28407;51.830;5.684;2022-10-15T13:47:37;3.03;;;2.63;;
42754;SDS011;28407;51.830;5.684;2022-10-15T13:49:41;2.60;;;2.33;;
42754;SDS011;28407;51.830;5.684;2022-10-15T13:51:42;3.45;;;3.05;;
42754;SDS011;28407;51.830;5.684;2022-10-15T13:53:45;4.53;;;3.63;;
42754;SDS011;28407;51.830;5.684;2022-10-15T13:55:47;3.72;;;3.03;;